FW3232 Weather Reports


Display with metric or nautical units.
time (UTC)temp
F
wind
direction
speed
MPH
gust
MPH
rain 1hr
in
rain 24hr
in
rain mn
in
humidity
%
barometer
mb
20240523161506 80 205 3.0 9.0 0.00 0.09 0.00 75 1011.7
20240523160005 79 190 5.0 12.0 0.00 0.10 0.00 76 1011.8
20240523154504 79 98 1.0 11.0 0.00 0.10 0.00 76 1011.8
20240523153003 79 146 3.0 9.0 0.00 0.10 0.00 76 1011.7
20240523151505 80 115 2.0 9.0 0.00 0.10 0.00 75 1011.7
20240523150100 77 323 1.0 7.0 0.00 0.12 0.00 79 1011.5
20240523144558 77 218 1.0 4.0 0.00 0.12 0.00 79 1011.7
20240523143056 74 161 1.0 6.0 0.00 0.12 0.00 84 1011.8
20240523141553 74 259 0.0 5.0 0.00 0.12 0.00 85 1012.0
20240523140050 72 115 0.0 4.0 0.00 0.12 0.00 89 1011.9
20240523134641 70 110 2.0 4.0 0.00 0.12 0.00 90 1012.3
20240523133042 69 101 0.0 4.0 0.00 0.12 0.00 93 1012.4
20240523131549 67 101 0.0 3.0 0.00 0.12 0.00 96 1012.1
20240523130033 67 101 0.0 2.0 0.00 0.12 0.00 97 1012.2
20240523124549 66 101 0.0 2.0 0.00 0.12 0.00 98 1012.2
20240523123033 66 101 0.0 2.0 0.00 0.12 0.00 98 1012.1
20240523121532 65 101 0.0 1.0 0.00 0.12 0.00 98 1011.9
20240523120038 65 101 0.0 0.0 0.00 0.12 0.00 98 1011.8
20240523114531 65 101 0.0 2.0 0.00 0.12 0.00 97 1011.7
20240523113031 65 101 0.0 2.0 0.00 0.12 0.00 97 1011.4
20240523111532 65 101 0.0 0.0 0.00 0.12 0.00 97 1011.1
20240523110031 65 101 0.0 4.0 0.00 0.12 0.00 97 1011.0
20240523104535 65 117 3.0 6.0 0.00 0.12 0.00 98 1010.9
20240523103028 65 164 0.0 0.0 0.00 0.12 0.00 98 1011.0
20240523101529 65 164 0.0 1.0 0.00 0.12 0.00 98 1011.0
20240523100027 65 164 0.0 0.0 0.00 0.12 0.00 98 1011.0
20240523094525 65 164 0.0 0.0 0.00 0.12 0.00 98 1011.0
20240523093027 65 164 0.0 0.0 0.00 0.12 0.00 98 1011.4
20240523091522 65 164 0.0 0.0 0.00 0.12 0.00 97 1011.5
20240523090032 66 164 0.0 0.0 0.00 0.12 0.00 97 1011.7
20240523084524 66 164 0.0 0.0 0.00 0.12 0.00 97 1011.6
20240523083020 65 164 0.0 0.0 0.00 0.12 0.00 97 1011.7
20240523081517 65 164 0.0 2.0 0.00 0.12 0.00 97 1012.0
20240523080018 65 164 0.0 2.0 0.00 0.12 0.00 96 1011.9
20240523074516 65 164 1.0 3.0 0.00 0.12 0.00 96 1012.1
20240523073014 66 112 0.0 2.0 0.00 0.12 0.00 95 1012.1
20240523071511 66 112 1.0 2.0 0.00 0.12 0.00 95 1012.3
20240523070012 66 112 0.0 0.0 0.00 0.12 0.00 95 1012.6
20240523064510 66 112 0.0 1.0 0.00 0.12 0.00 95 1012.6
20240523063017 66 112 0.0 2.0 0.00 0.12 0.00 95 1012.6
20240523061507 66 88 0.0 0.0 0.00 0.12 0.00 96 1012.5
20240523060006 66 88 0.0 0.0 0.00 0.12 0.00 95 1012.5
20240523054505 66 88 0.0 0.0 0.00 0.12 0.00 96 1012.4
20240523053006 66 88 0.0 0.0 0.00 0.12 0.00 95 1012.6
20240523051502 66 88 0.0 0.0 0.00 0.12 0.00 95 1012.7
20240523050102 66 88 0.0 0.0 0.00 0.12 0.12 95 1012.8
20240523044600 66 88 0.0 0.0 0.00 0.12 0.12 95 1012.7
20240523043117 66 88 0.0 0.0 0.00 0.12 0.12 94 1013.0
20240523041602 66 88 0.0 0.0 0.00 0.12 0.12 94 1013.2
20240523040100 66 88 0.0 0.0 0.00 0.12 0.12 95 1013.2
20240523034603 66 88 0.0 0.0 0.00 0.12 0.12 95 1013.3
20240523033058 66 88 0.0 0.0 0.00 0.12 0.12 95 1013.2
20240523031559 65 88 0.0 0.0 0.00 0.12 0.12 94 1013.0
20240523030057 65 88 0.0 0.0 0.00 0.12 0.12 93 1013.0
20240523024607 66 88 0.0 2.0 0.00 0.12 0.12 92 1012.6
20240523023058 66 88 0.0 1.0 0.00 0.12 0.12 91 1012.5
20240523021605 67 88 0.0 1.0 0.00 0.12 0.12 91 1012.2
20240523020144 68 88 1.0 3.0 0.00 0.12 0.12 89 1012.5
20240523014554 68 88 0.0 2.0 0.00 0.12 0.12 89 1012.2
20240523013057 68 88 0.0 0.0 0.00 0.12 0.12 88 1012.1
20240523011552 69 88 0.0 0.0 0.00 0.12 0.12 86 1012.4
20240523010052 69 88 0.0 0.0 0.00 0.12 0.12 85 1012.2
20240523004550 71 88 0.0 0.0 0.00 0.12 0.12 80 1012.3
20240523003050 71 88 0.0 1.0 0.00 0.12 0.12 77 1012.5
20240523001549 72 88 1.0 4.0 0.00 0.12 0.12 75 1012.6
20240523000058 73 115 2.0 6.0 0.00 0.12 0.12 72 1012.8
20240522234552 75 117 3.0 8.0 0.00 0.12 0.12 66 1012.6
20240522233056 76 37 1.0 4.0 0.00 0.12 0.12 65 1012.5
20240522231553 75 34 1.0 6.0 0.00 0.12 0.12 69 1012.4
20240522230056 76 43 3.0 6.0 0.00 0.12 0.12 66 1012.5
20240522224545 76 102 2.0 8.0 0.00 0.12 0.12 67 1012.6
20240522223045 76 286 1.0 4.0 0.00 0.12 0.12 67 1012.6
20240522221538 77 39 2.0 5.0 0.00 0.12 0.12 65 1012.8
20240522220040 77 107 2.0 5.0 0.00 0.23 0.12 66 1012.5
20240522214551 75 44 3.0 6.0 0.00 0.23 0.12 67 1012.6
20240522213052 75 60 1.0 5.0 0.00 0.23 0.12 66 1013.0
20240522211544 76 22 1.0 5.0 0.00 0.23 0.12 68 1012.7
20240522210031 75 81 3.0 5.0 0.00 0.23 0.12 69 1012.6
20240522204529 73 31 2.0 6.0 0.00 0.23 0.12 73 1012.7
20240522203030 73 339 1.0 10.0 0.00 0.23 0.12 75 1012.7
20240522201527 74 24 5.0 11.0 0.00 0.23 0.12 75 1012.8
20240522200025 73 360 3.0 11.0 0.09 0.23 0.12 80 1012.3
20240522194524 70 16 5.0 14.0 0.09 0.23 0.12 87 1012.3
20240522193042 66 103 5.0 11.0 0.09 0.23 0.12 94 1012.0
20240522191524 65 142 12.0 15.0 0.09 0.23 0.12 91 1012.2
20240522190022 69 287 4.0 8.0 0.00 0.14 0.03 80 1016.6
20240522184521 72 37 4.0 9.0 0.00 0.14 0.03 74 1014.6
20240522183019 73 36 4.0 11.0 0.00 0.14 0.03 73 1014.4
20240522181515 71 43 3.0 10.0 0.00 0.14 0.03 77 1014.7
20240522180015 68 57 3.0 8.0 0.00 0.14 0.03 82 1015.3
20240522174511 67 95 3.0 9.0 0.00 0.14 0.03 82 1015.0
20240522173010 67 346 3.0 9.0 0.00 0.14 0.03 83 1015.6
20240522171509 67 337 4.0 8.0 0.00 0.14 0.03 83 1016.0
20240522170009 67 360 3.0 8.0 0.00 0.14 0.03 86 1015.5
20240522164515 66 355 4.0 11.0 0.00 0.14 0.03 85 1016.0
20240522163008 65 321 4.0 9.0 0.00 0.14 0.03 88 1016.3